createdAt,value
2023-04-02T00:09:15.954Z,2.69
2023-04-02T00:14:33.618Z,2.58
2023-04-02T00:25:19.038Z,2.52
2023-04-02T00:30:22.937Z,2.51
2023-04-02T00:35:29.076Z,2.49
2023-04-02T00:40:42.382Z,2.49
2023-04-02T00:45:56.986Z,2.49
2023-04-02T00:51:14.573Z,2.50
2023-04-02T00:56:27.404Z,2.49
2023-04-02T01:01:37.826Z,2.54
2023-04-02T01:06:43.870Z,2.56
2023-04-02T01:12:32.050Z,2.58
2023-04-02T01:18:13.683Z,2.61
2023-04-02T01:24:08.150Z,2.60
2023-04-02T01:29:29.277Z,2.63
2023-04-02T01:34:33.262Z,2.63
2023-04-02T01:40:08.642Z,2.70
2023-04-02T01:45:17.122Z,2.77
2023-04-02T01:50:19.629Z,2.82
2023-04-02T01:55:44.405Z,2.83
2023-04-02T02:00:55.805Z,2.84
2023-04-02T02:06:03.975Z,2.89
2023-04-02T02:11:14.223Z,2.90
2023-04-02T02:16:18.127Z,2.94
2023-04-02T02:21:50.567Z,2.93
2023-04-02T02:27:16.529Z,2.90
2023-04-02T02:32:23.987Z,2.87
2023-04-02T02:37:34.967Z,2.89
2023-04-02T02:42:49.542Z,2.90
2023-04-02T02:47:57.731Z,2.90
2023-04-02T02:53:17.035Z,2.93
2023-04-02T02:58:27.977Z,2.90
2023-04-02T03:03:34.614Z,2.92
2023-04-02T03:09:04.437Z,2.89
2023-04-02T03:14:24.081Z,2.83
2023-04-02T03:20:01.525Z,2.81
2023-04-02T03:25:37.159Z,2.80
2023-04-02T03:31:04.188Z,2.73
2023-04-02T03:36:19.005Z,2.69
2023-04-02T03:41:42.816Z,2.70
2023-04-02T03:46:58.915Z,2.59
2023-04-02T03:52:14.970Z,2.46
2023-04-02T03:57:38.389Z,2.38
2023-04-02T04:02:52.565Z,2.28
2023-04-02T04:08:06.399Z,2.24
2023-04-02T04:13:20.347Z,2.10
2023-04-02T04:18:41.023Z,2.10
2023-04-02T04:23:51.011Z,2.13
2023-04-02T04:29:24.856Z,2.15
2023-04-02T04:34:47.279Z,2.28
2023-04-02T04:39:59.253Z,2.28
2023-04-02T04:45:12.472Z,2.31
2023-04-02T04:50:30.326Z,2.35
2023-04-02T04:56:18.675Z,2.41
2023-04-02T05:01:44.391Z,2.46
2023-04-02T05:07:15.655Z,2.48
2023-04-02T05:12:42.305Z,2.49
2023-04-02T05:18:30.502Z,2.54
2023-04-02T05:24:05.027Z,2.57
2023-04-02T05:29:26.615Z,2.59
2023-04-02T05:34:39.137Z,2.63
2023-04-02T05:39:46.006Z,2.64
2023-04-02T05:45:26.991Z,2.66
2023-04-02T05:50:37.506Z,2.74
2023-04-02T05:56:01.657Z,2.74
2023-04-02T06:01:17.941Z,2.75
2023-04-02T06:06:46.617Z,2.75
2023-04-02T06:12:13.451Z,2.78
2023-04-02T06:17:19.401Z,2.78
2023-04-02T06:22:38.406Z,2.78
2023-04-02T06:27:44.200Z,2.81
2023-04-02T06:32:48.886Z,2.84
2023-04-02T06:37:57.471Z,2.82
2023-04-02T06:43:11.767Z,2.85
2023-04-02T06:48:22.115Z,2.86
2023-04-02T06:53:36.880Z,2.91
2023-04-02T06:58:39.495Z,2.87
2023-04-02T07:03:44.066Z,2.88
2023-04-02T07:08:48.086Z,2.93
2023-04-02T07:13:51.058Z,2.92
2023-04-02T07:18:56.966Z,2.94
2023-04-02T07:23:59.540Z,2.97
2023-04-02T07:29:08.255Z,2.99
2023-04-02T07:34:11.251Z,3.10
2023-04-02T07:39:16.568Z,3.07
2023-04-02T07:44:19.502Z,3.12
2023-04-02T07:49:26.749Z,3.15
2023-04-02T07:54:33.610Z,3.21
2023-04-02T07:59:36.472Z,3.31
2023-04-02T08:04:39.140Z,3.35
2023-04-02T08:09:41.701Z,3.41
2023-04-02T08:14:44.472Z,3.44
2023-04-02T08:19:55.189Z,3.50
2023-04-02T08:24:58.231Z,3.57
2023-04-02T08:30:01.066Z,3.64
2023-04-02T08:35:06.271Z,3.66
2023-04-02T08:40:31.067Z,3.66
2023-04-02T08:46:22.086Z,3.69
2023-04-02T08:51:30.778Z,3.67
2023-04-02T08:56:47.148Z,3.70
2023-04-02T09:02:39.496Z,3.67
2023-04-02T09:07:42.432Z,3.64
2023-04-02T09:12:52.452Z,3.63
2023-04-02T09:18:11.811Z,3.63
2023-04-02T09:23:21.022Z,3.68
2023-04-02T09:28:24.384Z,3.75
2023-04-02T09:33:48.989Z,3.79
2023-04-02T09:39:06.428Z,3.82
2023-04-02T09:44:30.376Z,3.87
2023-04-02T09:49:37.943Z,3.91
2023-04-02T09:54:43.426Z,3.91
2023-04-02T09:59:47.569Z,4.00
2023-04-02T10:04:50.986Z,4.08
2023-04-02T10:10:29.209Z,4.14
2023-04-02T10:15:42.440Z,4.28
2023-04-02T10:20:52.036Z,4.42
2023-04-02T10:26:50.372Z,4.59
2023-04-02T10:32:14.518Z,4.89
2023-04-02T10:37:53.073Z,5.12
2023-04-02T10:43:36.595Z,5.29
2023-04-02T10:49:27.706Z,5.43
2023-04-02T10:54:44.063Z,5.56
2023-04-02T10:59:56.308Z,5.58
2023-04-02T11:05:07.195Z,5.80
2023-04-02T11:10:19.642Z,5.86
2023-04-02T11:15:38.130Z,5.82
2023-04-02T11:20:50.147Z,5.99
2023-04-02T11:26:28.382Z,6.18
2023-04-02T11:31:32.668Z,6.24
2023-04-02T11:36:53.769Z,6.20
2023-04-02T11:42:21.424Z,6.19
2023-04-02T11:47:29.911Z,6.34
2023-04-02T11:52:45.422Z,6.38
2023-04-02T11:58:20.666Z,6.39
2023-04-02T12:03:59.159Z,6.45
2023-04-02T12:09:22.582Z,6.53
2023-04-02T12:14:46.288Z,6.49
2023-04-02T12:19:52.771Z,6.59
2023-04-02T12:25:18.188Z,6.66
2023-04-02T12:30:23.642Z,6.65
2023-04-02T12:35:34.041Z,6.67
2023-04-02T12:40:38.847Z,6.84
2023-04-02T12:45:41.594Z,7.01
2023-04-02T12:50:47.894Z,7.18
2023-04-02T12:55:53.217Z,7.24
2023-04-02T13:01:20.497Z,7.16
2023-04-02T13:06:27.178Z,7.12
2023-04-02T13:11:38.380Z,6.99
2023-04-02T13:17:08.288Z,6.80
2023-04-02T13:22:31.766Z,6.76
2023-04-02T13:27:34.561Z,6.77
2023-04-02T13:32:39.318Z,6.83
2023-04-02T13:37:42.001Z,6.83
2023-04-02T13:42:47.073Z,6.91
2023-04-02T13:47:50.654Z,6.92
2023-04-02T13:52:57.815Z,6.95
2023-04-02T13:58:00.671Z,7.03
2023-04-02T14:03:13.058Z,7.05
2023-04-02T14:09:09.389Z,7.02
2023-04-02T14:14:42.792Z,7.00
2023-04-02T14:20:14.180Z,6.92
2023-04-02T14:26:02.080Z,6.85
2023-04-02T14:31:43.406Z,6.83
2023-04-02T14:37:34.831Z,6.80
2023-04-02T14:43:03.168Z,6.80
2023-04-02T14:48:21.236Z,6.80
2023-04-02T14:53:37.441Z,6.79
2023-04-02T14:58:48.748Z,6.77
2023-04-02T15:04:06.563Z,6.82
2023-04-02T15:09:26.003Z,6.85
2023-04-02T15:15:01.228Z,6.92
2023-04-02T15:20:15.954Z,7.03
2023-04-02T15:25:42.250Z,7.06
2023-04-02T15:30:47.167Z,7.07
2023-04-02T15:36:05.647Z,7.06
2023-04-02T15:41:46.086Z,7.02
2023-04-02T15:47:18.498Z,6.99
2023-04-02T15:53:03.327Z,6.88
2023-04-02T15:58:24.156Z,6.71
2023-04-02T16:04:12.821Z,6.60
2023-04-02T16:09:30.606Z,6.47
2023-04-02T16:14:46.746Z,6.33
2023-04-02T16:20:17.290Z,6.24
2023-04-02T16:25:24.435Z,6.15
2023-04-02T16:30:44.261Z,6.08
2023-04-02T16:36:27.009Z,6.03
2023-04-02T16:42:32.384Z,5.96
2023-04-02T16:48:12.535Z,5.80
2023-04-02T16:54:00.984Z,5.69
2023-04-02T16:59:33.106Z,5.54
2023-04-02T17:05:07.184Z,5.41
2023-04-02T17:10:31.425Z,5.28
2023-04-02T17:15:39.402Z,5.13
2023-04-02T17:20:42.341Z,5.00
2023-04-02T17:25:58.139Z,4.87
2023-04-02T17:31:01.649Z,4.73
2023-04-02T17:36:15.613Z,4.56
2023-04-02T17:41:42.537Z,4.40
2023-04-02T17:47:16.494Z,4.26
2023-04-02T17:53:01.516Z,4.13
2023-04-02T17:58:40.530Z,4.02
2023-04-02T18:04:01.230Z,3.91
2023-04-02T18:09:29.492Z,3.86
2023-04-02T18:14:48.773Z,3.75
2023-04-02T18:20:03.877Z,3.65
2023-04-02T18:25:55.665Z,3.56
2023-04-02T18:31:29.716Z,3.51
2023-04-02T18:37:01.143Z,3.39
2023-04-02T18:42:45.838Z,3.29
2023-04-02T18:48:04.289Z,3.21
2023-04-02T18:53:20.533Z,3.12
2023-04-02T18:58:33.099Z,3.07
2023-04-02T19:04:08.934Z,2.98
2023-04-02T19:09:26.097Z,2.90
2023-04-02T19:14:31.813Z,2.85
2023-04-02T19:19:56.194Z,2.76
2023-04-02T19:25:44.582Z,2.72
2023-04-02T19:31:23.221Z,2.63
2023-04-02T19:36:48.813Z,2.58
2023-04-02T19:42:00.226Z,2.52
2023-04-02T19:47:03.305Z,2.46
2023-04-02T19:52:08.749Z,2.33
2023-04-02T19:57:17.490Z,2.27
2023-04-02T20:02:20.222Z,2.32
2023-04-02T20:07:23.067Z,2.27
2023-04-02T20:12:28.754Z,2.19
2023-04-02T20:17:31.438Z,2.10
2023-04-02T20:22:34.215Z,2.05
2023-04-02T20:27:36.842Z,2.08
2023-04-02T20:32:41.404Z,2.02
2023-04-02T20:37:49.935Z,1.96
2023-04-02T20:42:53.455Z,1.91
2023-04-02T20:47:56.733Z,1.87
2023-04-02T20:53:03.979Z,1.81
2023-04-02T20:58:06.598Z,1.82
2023-04-02T21:03:11.274Z,1.74
2023-04-02T21:08:14.666Z,1.66
2023-04-02T21:13:17.257Z,1.61
2023-04-02T21:18:19.788Z,1.63
2023-04-02T21:23:24.351Z,1.67
2023-04-02T21:28:28.616Z,1.64
2023-04-02T21:33:38.373Z,1.57
2023-04-02T21:38:47.522Z,1.49
2023-04-02T21:43:50.970Z,1.47
2023-04-02T21:48:59.052Z,1.49
2023-04-02T21:54:03.349Z,1.44
2023-04-02T21:59:09.133Z,1.39
2023-04-02T22:04:24.549Z,1.31
2023-04-02T22:09:29.539Z,1.27
2023-04-02T22:14:36.003Z,1.24
2023-04-02T22:19:38.688Z,1.20
2023-04-02T22:24:41.243Z,1.14
2023-04-02T22:29:43.877Z,1.03
2023-04-02T22:34:46.732Z,1.01
2023-04-02T22:39:49.366Z,1.02
2023-04-02T22:44:58.301Z,0.98
2023-04-02T22:50:02.086Z,0.94
2023-04-02T22:55:06.399Z,0.88
2023-04-02T23:00:15.122Z,0.83
2023-04-02T23:05:17.860Z,0.79
2023-04-02T23:10:23.359Z,0.81
2023-04-02T23:15:31.888Z,0.82
2023-04-02T23:20:37.745Z,0.79
2023-04-02T23:25:41.319Z,0.73
2023-04-02T23:30:44.286Z,0.64
2023-04-02T23:35:47.859Z,0.60
2023-04-02T23:40:50.500Z,0.57
2023-04-02T23:45:57.664Z,0.51
2023-04-02T23:51:00.400Z,0.49
2023-04-02T23:56:03.426Z,0.56
